Time;durP1;ratioP1;P1;durP2;ratioP2;P2;SDS_P1;SDS_P2;PMS_P1;PMS_P2;Temp;Humidity;BMP_temperature;BMP_pressure;BME280_temperature;BME280_humidity;BME280_pressure;Samples;Min_cycle;Max_cycle;Signal;HPM_P1;HPM_P2
2022/07/12 00:00:27;;;;;;;14.77;10.47;;;10.50;99.90;;;;;;4435096;28;658822;-64
2022/07/12 00:03:14;;;;;;;17.57;8.80;;;10.70;99.90;;;;;;4431078;28;657537;-64
2022/07/12 00:06:02;;;;;;;12.23;8.90;;;10.70;99.90;;;;;;4413289;28;656419;-64
2022/07/12 00:08:50;;;;;;;14.63;7.53;;;10.80;99.90;;;;;;4430175;28;656728;-64
2022/07/12 00:11:38;;;;;;;12.98;7.45;;;10.90;99.90;;;;;;4406731;28;657525;-64
2022/07/12 00:14:25;;;;;;;12.97;8.57;;;11.00;99.90;;;;;;4426293;28;656344;-66
2022/07/12 00:17:12;;;;;;;14.43;7.63;;;10.90;99.90;;;;;;4435572;28;657546;-64
2022/07/12 00:19:59;;;;;;;15.73;7.63;;;11.00;99.90;;;;;;4435518;28;656395;-64
2022/07/12 00:22:47;;;;;;;14.07;8.20;;;11.00;99.90;;;;;;4416471;28;656439;-65
2022/07/12 00:25:35;;;;;;;11.70;8.10;;;11.00;99.90;;;;;;4434204;28;657654;-64
2022/07/12 00:28:22;;;;;;;14.40;7.23;;;11.00;99.90;;;;;;4414644;28;656895;-64
2022/07/12 00:31:09;;;;;;;14.47;7.30;;;11.10;99.90;;;;;;4434957;28;657229;-64
2022/07/12 00:33:56;;;;;;;10.17;7.03;;;11.10;99.90;;;;;;4416091;28;656312;-65
2022/07/12 00:36:43;;;;;;;13.77;7.90;;;11.10;99.90;;;;;;4435206;28;656462;-64
2022/07/12 00:39:31;;;;;;;11.07;7.47;;;11.10;99.90;;;;;;4416343;28;656763;-64
2022/07/12 00:42:19;;;;;;;13.27;6.47;;;11.20;99.90;;;;;;4435060;28;657347;-64
2022/07/12 00:45:07;;;;;;;10.40;6.93;;;11.20;99.90;;;;;;4415172;28;656521;-64
2022/07/12 00:47:54;;;;;;;11.50;6.77;;;11.20;99.90;;;;;;4434842;28;656640;-64
2022/07/12 00:50:42;;;;;;;10.10;6.87;;;11.30;99.90;;;;;;4416176;28;656772;-64
2022/07/12 00:53:29;;;;;;;17.03;7.10;;;11.30;99.90;;;;;;4434747;28;656401;-64
2022/07/12 00:56:16;;;;;;;12.23;6.57;;;11.30;99.90;;;;;;4416190;28;656545;-64
2022/07/12 00:59:04;;;;;;;12.00;6.90;;;11.30;99.90;;;;;;4438754;28;657144;-64
2022/07/12 01:01:51;;;;;;;11.60;7.43;;;11.30;99.90;;;;;;4413912;28;656547;-64
2022/07/12 01:04:38;;;;;;;11.57;7.90;;;11.40;99.90;;;;;;4434694;28;656526;-64
2022/07/12 01:07:26;;;;;;;12.17;7.63;;;11.20;99.90;;;;;;4415909;28;656767;-64
2022/07/12 01:10:13;;;;;;;14.13;7.60;;;11.20;99.90;;;;;;4434575;28;657488;-64
2022/07/12 01:13:00;;;;;;;14.67;9.43;;;11.10;99.90;;;;;;4415787;28;656495;-65
2022/07/12 01:15:49;;;;;;;14.77;8.10;;;11.20;99.90;;;;;;4434150;28;657199;-64
2022/07/12 01:18:36;;;;;;;12.80;8.13;;;11.20;99.90;;;;;;4415758;28;656875;-64
2022/07/12 01:21:23;;;;;;;11.90;8.37;;;11.30;99.90;;;;;;4434116;28;657982;-64
2022/07/12 01:24:12;;;;;;;13.97;9.70;;;11.30;99.90;;;;;;4414971;28;656569;-66
2022/07/12 01:26:59;;;;;;;14.53;10.40;;;11.30;99.90;;;;;;4434499;28;656792;-64
2022/07/12 01:29:46;;;;;;;16.17;10.43;;;11.30;99.90;;;;;;4414287;28;658934;-65
2022/07/12 01:32:33;;;;;;;13.80;9.63;;;11.30;99.90;;;;;;4432439;28;659080;-64
2022/07/12 01:35:20;;;;;;;19.90;11.70;;;11.40;99.90;;;;;;4415076;28;656958;-66
2022/07/12 01:38:07;;;;;;;17.63;11.43;;;11.30;99.90;;;;;;4436423;28;657409;-64
2022/07/12 01:40:56;;;;;;;16.97;11.40;;;11.30;99.90;;;;;;4432933;28;657205;-64
2022/07/12 01:43:43;;;;;;;15.33;10.33;;;11.30;99.90;;;;;;4404592;28;657882;-64
2022/07/12 01:46:30;;;;;;;18.17;11.47;;;11.40;99.90;;;;;;4414780;28;657877;-67
2022/07/12 01:49:17;;;;;;;19.20;11.75;;;11.30;99.90;;;;;;4435917;28;657351;-64
2022/07/12 01:52:05;;;;;;;17.90;11.63;;;11.30;99.90;;;;;;4431672;28;658088;-64
2022/07/12 01:54:52;;;;;;;18.53;11.33;;;11.30;99.90;;;;;;4408947;28;659122;-64
2022/07/12 01:57:41;;;;;;;20.90;11.90;;;11.50;99.90;;;;;;4430929;28;658118;-64
2022/07/12 02:00:29;;;;;;;20.47;11.57;;;11.40;99.90;;;;;;4407915;28;657474;-64
2022/07/12 02:03:16;;;;;;;17.63;12.10;;;11.50;99.90;;;;;;4411636;28;657567;-64
2022/07/12 02:06:03;;;;;;;21.60;12.40;;;11.50;99.90;;;;;;4431511;28;658770;-64
2022/07/12 02:08:50;;;;;;;21.67;13.77;;;11.60;99.90;;;;;;4412466;28;657653;-65
2022/07/12 02:11:37;;;;;;;35.43;16.20;;;11.50;99.90;;;;;;4431775;28;658695;-64
2022/07/12 02:14:27;;;;;;;29.03;18.00;;;11.60;99.90;;;;;;4430719;28;658184;-66
2022/07/12 02:17:14;;;;;;;33.63;19.10;;;11.50;99.90;;;;;;4431329;28;657314;-64
2022/07/12 02:20:01;;;;;;;27.77;18.90;;;11.50;99.90;;;;;;4408505;28;657989;-64
2022/07/12 02:22:48;;;;;;;33.13;19.27;;;11.50;99.90;;;;;;4434681;28;657910;-64
2022/07/12 02:25:35;;;;;;;27.90;18.47;;;11.60;99.90;;;;;;4412091;28;658313;-64
2022/07/12 02:28:23;;;;;;;36.23;20.53;;;11.50;99.90;;;;;;4430733;28;658776;-64
2022/07/12 02:31:11;;;;;;;35.67;20.77;;;11.40;99.90;;;;;;4425444;28;657518;-66
2022/07/12 02:33:58;;;;;;;29.40;20.20;;;11.40;99.90;;;;;;4431061;28;658305;-65
2022/07/12 02:36:46;;;;;;;31.57;19.57;;;11.50;99.90;;;;;;4411437;28;657706;-66
2022/07/12 02:39:33;;;;;;;37.33;19.87;;;11.40;99.90;;;;;;4434950;28;657902;-65
2022/07/12 02:42:20;;;;;;;29.50;18.73;;;11.50;99.90;;;;;;4421436;28;657957;-67
2022/07/12 02:45:08;;;;;;;28.23;17.40;;;11.50;99.90;;;;;;4435109;28;658530;-65
2022/07/12 02:47:56;;;;;;;26.40;17.23;;;11.60;99.90;;;;;;4421976;28;657673;-66
2022/07/12 02:50:43;;;;;;;24.33;16.43;;;11.60;99.90;;;;;;4431652;28;658177;-65
2022/07/12 02:53:31;;;;;;;24.33;15.03;;;11.60;99.90;;;;;;4412683;28;658159;-65
2022/07/12 02:56:18;;;;;;;25.53;13.80;;;11.60;99.90;;;;;;4434469;28;658619;-65
2022/07/12 02:59:05;;;;;;;23.87;14.57;;;11.60;99.90;;;;;;4415196;28;658335;-67
2022/07/12 03:01:52;;;;;;;22.38;14.23;;;11.60;99.90;;;;;;4435155;28;658189;-65
2022/07/12 03:04:41;;;;;;;20.33;14.00;;;11.70;99.90;;;;;;4431118;28;658023;-65
2022/07/12 03:07:28;;;;;;;18.57;12.23;;;11.60;99.90;;;;;;4408898;28;657942;-65
2022/07/12 03:10:16;;;;;;;17.83;12.00;;;11.70;99.90;;;;;;4420122;28;657566;-67
2022/07/12 03:13:03;;;;;;;17.43;11.30;;;11.70;99.90;;;;;;4430931;28;658936;-67
2022/07/12 03:15:50;;;;;;;15.93;10.63;;;11.70;99.90;;;;;;4412421;28;658121;-66
2022/07/12 03:18:39;;;;;;;16.07;10.43;;;11.80;99.90;;;;;;4431188;28;659218;-65
2022/07/12 03:21:28;;;;;;;11.23;9.17;;;11.80;99.90;;;;;;4412527;28;657822;-66
2022/07/12 03:24:15;;;;;;;18.77;9.53;;;11.80;99.90;;;;;;4414809;28;656861;-67
2022/07/12 03:27:02;;;;;;;12.20;9.40;;;11.80;99.90;;;;;;4436382;28;657455;-66
2022/07/12 03:29:49;;;;;;;14.17;9.70;;;11.90;99.90;;;;;;4431993;28;657393;-66
2022/07/12 03:32:36;;;;;;;14.47;8.90;;;11.90;99.90;;;;;;4407518;28;656415;-66
2022/07/12 03:35:24;;;;;;;9.97;7.37;;;11.80;99.90;;;;;;4432418;28;656534;-66
2022/07/12 03:38:12;;;;;;;10.13;6.93;;;11.80;99.90;;;;;;4414662;28;656056;-67
2022/07/12 03:40:59;;;;;;;10.20;6.70;;;11.90;99.90;;;;;;4432108;28;657187;-66
2022/07/12 03:43:46;;;;;;;12.40;5.50;;;11.80;99.90;;;;;;4408126;28;656467;-66
2022/07/12 03:46:33;;;;;;;13.10;6.17;;;11.90;99.90;;;;;;4431476;28;656778;-66
2022/07/12 03:49:20;;;;;;;10.40;6.00;;;11.80;99.90;;;;;;4415881;28;656716;-66
2022/07/12 03:52:08;;;;;;;8.57;5.83;;;11.90;99.90;;;;;;4434669;28;658206;-66
2022/07/12 03:54:56;;;;;;;11.80;6.87;;;11.90;99.90;;;;;;4416606;28;656153;-67
2022/07/12 03:57:44;;;;;;;9.80;6.83;;;12.00;99.90;;;;;;4434603;28;657404;-66
2022/07/12 04:00:31;;;;;;;13.57;6.87;;;12.00;99.90;;;;;;4417227;28;655238;-67
2022/07/12 04:03:18;;;;;;;8.95;6.18;;;12.10;99.90;;;;;;4435784;28;657014;-66
2022/07/12 04:06:05;;;;;;;9.27;5.57;;;12.10;99.90;;;;;;4419803;28;655625;-68
2022/07/12 04:08:52;;;;;;;7.33;4.80;;;12.10;99.90;;;;;;4435648;28;656912;-66
2022/07/12 04:11:41;;;;;;;8.37;4.83;;;12.10;99.90;;;;;;4439594;28;656089;-67
2022/07/12 04:14:29;;;;;;;10.10;4.47;;;12.00;99.90;;;;;;4429406;28;656292;-66
2022/07/12 04:17:16;;;;;;;8.00;4.67;;;12.00;99.90;;;;;;4413909;28;656427;-66
2022/07/12 04:20:03;;;;;;;9.63;4.13;;;12.00;99.90;;;;;;4438848;28;656018;-66
2022/07/12 04:22:50;;;;;;;7.23;4.10;;;12.00;99.90;;;;;;4416917;28;656336;-67
2022/07/12 04:25:37;;;;;;;7.00;3.37;;;12.10;99.90;;;;;;4435536;28;657204;-66
2022/07/12 04:28:26;;;;;;;5.90;4.00;;;12.10;99.90;;;;;;4435220;28;655223;-66
2022/07/12 04:31:13;;;;;;;5.60;3.73;;;12.00;99.90;;;;;;4412886;28;656810;-66
2022/07/12 04:34:00;;;;;;;8.17;5.03;;;12.20;99.90;;;;;;4420389;28;655547;-68
2022/07/12 04:36:48;;;;;;;7.97;5.10;;;12.20;99.90;;;;;;4439400;28;655570;-66
2022/07/12 04:39:35;;;;;;;8.57;5.60;;;12.40;99.90;;;;;;4416338;28;655445;-66
2022/07/12 04:42:23;;;;;;;8.20;5.27;;;12.70;99.90;;;;;;4435370;28;656750;-66
2022/07/12 04:45:11;;;;;;;8.23;5.20;;;12.80;99.90;;;;;;4429059;28;655494;-67
2022/07/12 04:47:59;;;;;;;10.60;6.10;;;12.90;99.90;;;;;;4436214;28;655556;-66
2022/07/12 04:50:46;;;;;;;8.40;6.70;;;12.60;99.90;;;;;;4416030;28;656569;-66
2022/07/12 04:53:33;;;;;;;11.27;6.57;;;12.50;99.90;;;;;;4435841;28;656634;-65
2022/07/12 04:56:20;;;;;;;12.03;7.80;;;12.60;99.90;;;;;;4415741;28;656440;-66
2022/07/12 04:59:07;;;;;;;13.70;8.30;;;12.80;99.90;;;;;;4434141;28;657648;-66
2022/07/12 05:01:56;;;;;;;15.13;9.53;;;12.70;99.90;;;;;;4434362;28;656807;-65
2022/07/12 05:04:44;;;;;;;13.53;9.47;;;12.60;99.90;;;;;;4411808;28;658008;-65
2022/07/12 05:07:31;;;;;;;19.13;11.50;;;12.90;99.90;;;;;;4415805;28;656507;-66
2022/07/12 05:10:18;;;;;;;17.23;11.13;;;12.70;99.90;;;;;;4433455;28;658297;-66
2022/07/12 05:13:05;;;;;;;19.13;11.37;;;12.80;99.90;;;;;;4414282;28;657672;-66
2022/07/12 05:15:53;;;;;;;17.13;10.97;;;12.80;99.90;;;;;;4433261;28;659107;-65
2022/07/12 05:18:41;;;;;;;20.07;12.00;;;13.10;99.90;;;;;;4426642;28;657760;-67
2022/07/12 05:21:29;;;;;;;15.93;11.13;;;13.10;99.90;;;;;;4433548;28;658379;-65
2022/07/12 05:24:16;;;;;;;22.17;12.63;;;13.10;99.90;;;;;;4414074;28;657780;-65
2022/07/12 05:27:04;;;;;;;21.70;12.00;;;13.00;99.90;;;;;;4436616;28;658122;-65
2022/07/12 05:29:51;;;;;;;17.57;11.97;;;13.20;99.90;;;;;;4413934;28;657753;-66
2022/07/12 05:32:38;;;;;;;16.30;11.63;;;13.20;99.90;;;;;;4435431;28;658451;-65
2022/07/12 05:35:26;;;;;;;20.63;12.80;;;13.20;99.90;;;;;;4418539;28;657572;-67
2022/07/12 05:38:13;;;;;;;16.20;11.30;;;13.40;99.90;;;;;;4432777;28;658462;-65
2022/07/12 05:41:01;;;;;;;13.93;9.10;;;13.40;99.90;;;;;;4413773;28;657557;-65
2022/07/12 05:43:48;;;;;;;18.03;12.30;;;13.40;99.90;;;;;;4434118;28;656227;-65
2022/07/12 05:46:36;;;;;;;16.67;10.63;;;13.60;99.90;;;;;;4423734;28;657354;-67
2022/07/12 05:49:24;;;;;;;22.30;14.30;;;13.50;99.90;;;;;;4425250;28;658014;-65
2022/07/12 05:55:16;;;;;;;19.93;13.67;;;13.50;99.90;;;;;;4413524;28;657261;-65
2022/07/12 05:58:04;;;;;;;19.50;14.13;;;13.20;99.90;;;;;;4432550;28;657338;-65
2022/07/12 06:00:51;;;;;;;19.00;13.13;;;13.30;99.90;;;;;;4413440;28;657640;-65
2022/07/12 06:03:38;;;;;;;18.37;13.63;;;13.30;99.90;;;;;;4431935;28;658369;-66
2022/07/12 06:06:25;;;;;;;17.92;12.85;;;13.40;99.90;;;;;;4413406;28;657886;-67
2022/07/12 06:09:14;;;;;;;19.00;13.57;;;13.70;99.90;;;;;;4436079;28;658081;-66
2022/07/12 06:12:01;;;;;;;17.50;11.47;;;14.00;99.90;;;;;;4413584;28;657926;-66
2022/07/12 06:14:48;;;;;;;18.00;13.50;;;14.10;99.90;;;;;;4431878;28;658662;-66
2022/07/12 06:17:35;;;;;;;17.97;12.93;;;13.80;99.90;;;;;;4413184;28;658246;-66
2022/07/12 06:20:23;;;;;;;18.07;13.10;;;13.70;99.90;;;;;;4431567;28;659005;-66
2022/07/12 06:23:10;;;;;;;17.60;11.77;;;13.80;99.90;;;;;;4426161;28;657697;-66
2022/07/12 06:25:58;;;;;;;18.80;12.07;;;13.90;99.90;;;;;;4436209;28;658199;-65
2022/07/12 06:28:46;;;;;;;18.53;12.73;;;14.10;99.90;;;;;;4413010;28;657909;-66
2022/07/12 06:31:33;;;;;;;17.87;12.13;;;13.90;99.90;;;;;;4436202;28;657658;-65
2022/07/12 06:34:20;;;;;;;13.33;11.00;;;13.50;99.90;;;;;;4422575;28;658301;-67
2022/07/12 06:37:08;;;;;;;17.17;12.32;;;13.50;99.90;;;;;;4436019;28;657485;-65
2022/07/12 06:39:55;;;;;;;18.17;11.30;;;13.60;99.90;;;;;;4412641;28;657592;-66
2022/07/12 06:42:44;;;;;;;17.23;11.47;;;13.80;99.90;;;;;;4431785;28;659951;-66
2022/07/12 06:45:31;;;;;;;15.13;11.30;;;14.10;99.90;;;;;;4412976;28;657423;-66
2022/07/12 06:48:18;;;;;;;17.97;11.63;;;14.30;99.90;;;;;;4431308;28;658294;-65
2022/07/12 06:51:05;;;;;;;15.47;10.90;;;14.10;99.90;;;;;;4412534;28;657747;-66
2022/07/12 06:53:52;;;;;;;14.30;10.07;;;14.20;99.90;;;;;;4430746;28;659459;-65
2022/07/12 06:56:41;;;;;;;11.33;8.07;;;14.20;99.90;;;;;;4429698;28;657847;-66
2022/07/12 06:59:29;;;;;;;10.77;8.57;;;14.60;99.90;;;;;;4432449;28;657096;-65
2022/07/12 07:02:16;;;;;;;12.57;8.80;;;14.60;99.90;;;;;;4413627;28;656786;-65
2022/07/12 07:05:03;;;;;;;10.85;8.40;;;14.50;99.90;;;;;;4431882;28;658016;-65
2022/07/12 07:07:51;;;;;;;11.33;7.50;;;14.80;99.90;;;;;;4414080;28;656630;-66
2022/07/12 07:10:38;;;;;;;10.97;8.33;;;14.60;99.90;;;;;;4436413;28;658291;-65
2022/07/12 07:13:25;;;;;;;10.63;4.80;;;14.80;99.90;;;;;;4421468;28;657042;-68
2022/07/12 07:16:14;;;;;;;10.23;7.10;;;15.00;99.90;;;;;;4435416;28;658141;-65
2022/07/12 07:19:02;;;;;;;9.50;7.07;;;14.90;99.90;;;;;;4412884;28;656238;-66
2022/07/12 07:21:49;;;;;;;14.73;7.60;;;15.00;99.90;;;;;;4432555;28;655065;-66
2022/07/12 07:24:36;;;;;;;11.20;6.60;;;15.00;99.90;;;;;;4412742;28;657320;-66
2022/07/12 07:27:24;;;;;;;12.07;6.10;;;14.90;99.90;;;;;;4431641;28;657347;-66
2022/07/12 07:33:17;;;;;;;9.27;5.47;;;15.50;99.90;;;;;;4386879;28;656597;-66
2022/07/12 07:36:05;;;;;;;11.07;5.33;;;15.70;99.90;;;;;;4436642;28;655422;-65
2022/07/12 07:38:52;;;;;;;7.43;4.87;;;15.90;99.90;;;;;;4408790;28;657829;-66
2022/07/12 07:41:39;;;;;;;6.77;4.70;;;15.70;99.90;;;;;;4435221;28;655748;-65
2022/07/12 07:44:26;;;;;;;10.47;4.47;;;16.30;99.90;;;;;;4410919;28;655445;-66
2022/07/12 07:47:13;;;;;;;8.10;4.40;;;15.80;99.90;;;;;;4432606;28;656916;-65
2022/07/12 07:50:01;;;;;;;13.40;4.47;;;15.60;99.90;;;;;;4414555;28;655437;-67
2022/07/12 07:52:51;;;;;;;7.23;4.10;;;15.30;99.90;;;;;;4431351;28;657151;-66
2022/07/12 07:55:38;;;;;;;5.33;3.50;;;15.70;99.90;;;;;;4410249;28;656334;-66
2022/07/12 07:58:27;;;;;;;4.40;2.43;;;16.20;99.90;;;;;;4422262;28;655617;-67
2022/07/12 08:01:15;;;;;;;5.77;2.77;;;16.80;99.90;;;;;;4428893;28;655836;-67
2022/07/12 08:04:02;;;;;;;7.00;2.60;;;16.90;99.90;;;;;;4436151;28;655420;-65
2022/07/12 08:06:51;;;;;;;7.50;2.73;;;16.70;99.90;;;;;;4432456;28;655842;-66
2022/07/12 08:09:38;;;;;;;7.50;2.70;;;16.50;99.90;;;;;;4409806;28;656449;-66
2022/07/12 08:12:26;;;;;;;5.63;2.83;;;16.00;99.90;;;;;;4422660;28;655621;-67
2022/07/12 08:15:13;;;;;;;5.97;2.70;;;15.70;99.90;;;;;;4436563;28;655728;-66
2022/07/12 08:18:00;;;;;;;6.33;2.40;;;15.80;99.90;;;;;;4422487;28;655431;-67
2022/07/12 08:20:47;;;;;;;6.47;2.10;;;16.00;99.90;;;;;;4436191;28;656059;-66
2022/07/12 08:23:36;;;;;;;4.80;1.97;;;16.90;99.90;;;;;;4431790;28;655832;-66
2022/07/12 08:26:23;;;;;;;5.80;2.13;;;17.20;99.90;;;;;;4409780;28;657252;-67
2022/07/12 08:29:10;;;;;;;4.73;2.00;;;17.40;99.90;;;;;;4423467;28;655949;-67
2022/07/12 08:31:57;;;;;;;3.17;1.67;;;17.40;99.90;;;;;;4436257;28;655404;-66
2022/07/12 08:34:44;;;;;;;3.60;1.70;;;17.30;99.90;;;;;;4432978;28;656166;-66
2022/07/12 08:37:31;;;;;;;10.70;1.93;;;17.00;99.90;;;;;;4413494;28;655536;-66
2022/07/12 08:40:20;;;;;;;1.63;1.27;;;16.80;99.90;;;;;;4433843;28;657049;-65
2022/07/12 08:43:07;;;;;;;4.13;1.50;;;16.60;99.90;;;;;;4413027;28;657181;-65
2022/07/12 08:45:54;;;;;;;3.83;1.50;;;16.30;99.90;;;;;;4435638;28;655640;-65
2022/07/12 08:48:42;;;;;;;1.77;1.40;;;16.10;99.90;;;;;;4417537;28;656205;-65
2022/07/12 08:51:30;;;;;;;6.00;1.63;;;15.90;99.90;;;;;;4427799;28;655357;-67
2022/07/12 08:54:17;;;;;;;3.10;1.43;;;15.60;99.90;;;;;;4439876;28;655191;-64
2022/07/12 08:57:06;;;;;;;3.23;1.33;;;15.20;99.90;;;;;;4435687;28;655593;-65
2022/07/12 08:59:59;;;;;;;2.07;1.57;;;14.60;99.90;;;;;;4412795;28;656510;-65
2022/07/12 09:02:48;;;;;;;4.17;1.50;;;14.60;99.90;;;;;;4413608;28;656321;-65
2022/07/12 09:05:35;;;;;;;3.00;1.80;;;14.50;99.90;;;;;;4416868;28;655896;-67
2022/07/12 09:08:27;;;;;;;4.40;1.33;;;14.60;99.90;;;;;;4436021;28;657589;-66
2022/07/12 09:11:15;;;;;;;6.90;1.60;;;14.80;99.90;;;;;;4412615;28;655833;-66
2022/07/12 09:14:04;;;;;;;4.70;1.40;;;14.90;99.90;;;;;;4412911;28;656391;-65
2022/07/12 09:17:02;;;;;;;3.10;1.20;;;14.70;99.90;;;;;;4416793;28;655653;-66
2022/07/12 09:19:55;;;;;;;2.50;1.20;;;14.80;99.90;;;;;;4409562;28;655500;-67
2022/07/12 09:22:53;;;;;;;2.90;1.20;;;14.50;99.90;;;;;;4416985;28;656147;-65
2022/07/12 09:25:44;;;;;;;2.50;1.30;;;14.40;99.90;;;;;;4402650;28;655213;-67
2022/07/12 09:28:31;;;;;;;3.53;1.30;;;14.40;99.90;;;;;;4415185;28;656475;-66
2022/07/12 09:31:19;;;;;;;3.07;1.40;;;14.60;99.90;;;;;;4437877;28;656878;-65
2022/07/12 09:37:12;;;;;;;5.15;1.45;;;14.90;99.90;;;;;;4415712;28;656185;-66
2022/07/12 09:39:59;;;;;;;3.50;1.43;;;15.10;99.90;;;;;;4434381;28;655733;-65
2022/07/12 09:42:46;;;;;;;4.20;1.93;;;14.90;99.90;;;;;;4411656;28;655142;-65
2022/07/12 09:45:33;;;;;;;2.47;1.70;;;15.20;99.90;;;;;;4434776;28;656003;-65
2022/07/12 09:48:22;;;;;;;4.90;1.43;;;16.00;99.90;;;;;;4415269;28;655594;-66
2022/07/12 09:51:10;;;;;;;3.73;1.87;;;17.00;99.90;;;;;;4432848;28;656550;-66
2022/07/12 09:53:58;;;;;;;3.73;1.87;;;17.60;99.90;;;;;;4411520;28;656706;-66
2022/07/12 09:56:45;;;;;;;3.07;1.80;;;18.30;99.90;;;;;;4418342;28;655308;-67
2022/07/12 09:59:32;;;;;;;1.65;1.17;;;18.90;99.90;;;;;;4436836;28;657180;-65
2022/07/12 10:02:19;;;;;;;3.20;1.73;;;18.50;99.90;;;;;;4432674;28;656948;-65
2022/07/12 10:05:11;;;;;;;3.20;1.33;;;18.30;99.90;;;;;;4414006;28;657239;-66
2022/07/12 10:07:58;;;;;;;6.27;2.20;;;18.10;99.90;;;;;;4410195;28;658045;-66
2022/07/12 10:10:45;;;;;;;7.37;1.70;;;17.50;99.90;;;;;;4413852;28;656837;-66
2022/07/12 10:13:32;;;;;;;6.77;1.50;;;17.70;99.90;;;;;;4436640;28;656856;-65
2022/07/12 10:16:25;;;;;;;3.27;1.40;;;18.00;99.90;;;;;;4432300;28;655987;-65
2022/07/12 10:19:25;;;;;;;3.20;1.33;;;18.00;99.90;;;;;;4384764;28;657271;-66
2022/07/12 10:22:21;;;;;;;3.33;1.00;;;17.90;99.90;;;;;;4386766;28;657905;-66
2022/07/12 10:25:29;;;;;;;7.43;1.40;;;17.90;99.90;;;;;;4409635;28;656890;-65
2022/07/12 10:28:16;;;;;;;3.03;1.23;;;17.70;99.90;;;;;;4410534;28;656427;-66
2022/07/12 10:31:03;;;;;;;4.90;1.33;;;18.50;99.90;;;;;;4432421;28;657085;-66
2022/07/12 10:34:00;;;;;;;2.63;1.20;;;18.80;99.90;;;;;;4413273;28;656826;-67
2022/07/12 10:37:11;;;;;;;2.57;1.00;;;18.90;99.90;;;;;;4408915;28;656624;-66
2022/07/12 10:40:16;;;;;;;2.17;1.20;;;18.80;99.90;;;;;;4408824;28;656626;-65
2022/07/12 10:43:14;;;;;;;1.07;0.63;;;18.70;99.90;;;;;;4409278;28;656927;-65
2022/07/12 10:46:01;;;;;;;3.50;1.20;;;18.40;99.90;;;;;;4413608;28;656811;-66
2022/07/12 10:48:48;;;;;;;0.70;0.70;;;17.90;99.90;;;;;;4437268;28;656987;-65
2022/07/12 10:51:35;;;;;;;2.37;0.93;;;17.50;99.90;;;;;;4416342;28;656934;-67
2022/07/12 10:54:22;;;;;;;3.50;1.07;;;17.90;99.90;;;;;;4436877;28;656781;-65
2022/07/12 10:57:12;;;;;;;2.13;1.00;;;18.60;99.90;;;;;;4429314;28;656292;-67
2022/07/12 11:00:00;;;;;;;2.07;1.13;;;18.70;99.90;;;;;;4431108;28;657204;-67
2022/07/12 11:02:47;;;;;;;3.60;1.20;;;18.70;99.90;;;;;;4437003;28;656298;-65
2022/07/12 11:05:34;;;;;;;2.17;1.10;;;18.30;99.90;;;;;;4432904;28;656914;-66
2022/07/12 11:08:21;;;;;;;5.57;1.10;;;17.60;99.90;;;;;;4413967;28;657075;-65
2022/07/12 11:11:09;;;;;;;2.67;0.80;;;17.50;99.90;;;;;;4432856;28;656657;-66
2022/07/12 11:13:57;;;;;;;3.30;0.80;;;18.10;99.90;;;;;;4413582;28;656527;-66
2022/07/12 11:16:45;;;;;;;4.53;1.23;;;18.50;99.90;;;;;;4432309;28;656867;-66
2022/07/12 11:19:33;;;;;;;2.83;1.00;;;19.10;99.90;;;;;;4408665;28;657193;-65
2022/07/12 11:22:20;;;;;;;2.30;1.00;;;19.50;99.90;;;;;;4415069;28;657162;-66
2022/07/12 11:25:09;;;;;;;8.63;1.10;;;18.90;99.90;;;;;;4436929;28;657350;-66
2022/07/12 11:27:56;;;;;;;2.87;0.90;;;19.70;99.90;;;;;;4409604;28;656434;-66
2022/07/12 11:30:50;;;;;;;1.77;0.90;;;19.50;99.90;;;;;;4432355;28;657854;-66
2022/07/12 11:33:38;;;;;;;3.73;0.90;;;18.20;99.90;;;;;;4413592;28;656414;-65
2022/07/12 11:36:26;;;;;;;1.27;1.02;;;18.20;99.90;;;;;;4413523;28;656844;-66
2022/07/12 11:39:13;;;;;;;3.00;0.97;;;17.70;99.90;;;;;;4432122;28;658114;-65
2022/07/12 11:42:00;;;;;;;6.50;1.20;;;18.40;99.90;;;;;;4413339;28;656345;-67
2022/07/12 11:44:49;;;;;;;3.70;1.50;;;19.30;99.90;;;;;;4432313;28;657905;-66
2022/07/12 11:47:37;;;;;;;2.83;1.20;;;20.00;99.90;;;;;;4413139;28;656755;-67
2022/07/12 11:50:24;;;;;;;1.63;0.80;;;20.40;99.90;;;;;;4424928;28;657193;-66
2022/07/12 11:53:17;;;;;;;4.27;0.80;;;19.70;99.90;;;;;;4413716;28;657340;-67
2022/07/12 11:56:05;;;;;;;4.00;0.97;;;18.90;99.90;;;;;;4409658;28;656255;-66
2022/07/12 11:58:56;;;;;;;2.70;1.00;;;18.70;99.90;;;;;;4413309;28;657804;-66
2022/07/12 12:01:43;;;;;;;2.93;1.30;;;17.70;99.90;;;;;;4408946;28;657212;-67
2022/07/12 12:04:32;;;;;;;3.80;1.30;;;17.10;99.90;;;;;;4413196;28;656780;-67
2022/07/12 12:07:19;;;;;;;4.30;1.50;;;17.20;99.90;;;;;;4432507;28;656649;-66
2022/07/12 12:10:07;;;;;;;9.70;1.70;;;16.90;99.90;;;;;;4415290;28;657044;-66
2022/07/12 12:12:56;;;;;;;1.53;1.30;;;17.60;99.90;;;;;;4435236;28;657109;-66
2022/07/12 12:15:50;;;;;;;4.50;1.40;;;18.10;99.90;;;;;;4412633;28;658085;-66
2022/07/12 12:18:38;;;;;;;3.83;1.47;;;19.30;99.90;;;;;;4416529;28;657114;-66
2022/07/12 12:21:28;;;;;;;3.57;1.30;;;19.40;99.90;;;;;;4416542;28;656726;-67
2022/07/12 12:24:15;;;;;;;2.93;1.40;;;20.50;99.90;;;;;;4419127;28;656771;-67
2022/07/12 12:27:02;;;;;;;4.70;1.30;;;20.60;99.90;;;;;;4439250;28;657053;-66
2022/07/12 12:29:51;;;;;;;3.53;1.33;;;20.20;99.90;;;;;;4434964;28;657010;-66
2022/07/12 12:32:49;;;;;;;5.47;1.10;;;19.90;99.90;;;;;;4412357;28;657915;-65
2022/07/12 12:35:36;;;;;;;5.13;1.07;;;19.60;99.90;;;;;;4389384;28;657149;-66
2022/07/12 12:38:25;;;;;;;2.40;1.13;;;18.90;99.90;;;;;;4435001;28;657435;-66
2022/07/12 12:41:12;;;;;;;2.07;0.97;;;18.70;99.90;;;;;;4412436;28;656863;-66
2022/07/12 12:44:00;;;;;;;1.70;0.63;;;18.20;99.90;;;;;;4433544;28;656515;-66
2022/07/12 12:46:47;;;;;;;4.83;0.90;;;17.90;99.90;;;;;;4415644;28;657845;-66
2022/07/12 12:49:48;;;;;;;2.77;0.70;;;17.20;99.90;;;;;;4439093;28;656291;-65
2022/07/12 12:52:48;;;;;;;3.33;0.80;;;16.40;99.90;;;;;;4393379;28;657119;-66
2022/07/12 12:55:37;;;;;;;0.90;0.73;;;15.40;99.90;;;;;;4393241;28;656802;-66
2022/07/12 12:58:24;;;;;;;1.30;0.77;;;14.90;99.90;;;;;;4431745;28;656921;-66
2022/07/12 13:01:11;;;;;;;1.90;0.80;;;15.10;99.90;;;;;;4416252;28;656340;-66
2022/07/12 13:03:58;;;;;;;4.80;1.00;;;15.30;99.90;;;;;;4434837;28;656413;-66
2022/07/12 13:06:46;;;;;;;4.73;1.00;;;15.70;99.90;;;;;;4415918;28;656678;-66
2022/07/12 13:09:33;;;;;;;5.63;1.10;;;16.10;99.90;;;;;;4438587;28;658109;-66
2022/07/12 13:12:22;;;;;;;2.30;1.00;;;16.50;99.90;;;;;;4422704;28;656531;-67
2022/07/12 13:15:09;;;;;;;2.53;0.70;;;16.90;99.90;;;;;;4438530;28;655691;-65
2022/07/12 13:17:56;;;;;;;2.80;1.07;;;17.10;99.90;;;;;;4415731;28;656672;-66
2022/07/12 13:20:44;;;;;;;4.93;1.20;;;17.60;99.90;;;;;;4433981;28;657005;-65
2022/07/12 13:23:31;;;;;;;3.07;1.10;;;18.20;99.90;;;;;;4415335;28;656373;-66
2022/07/12 13:26:18;;;;;;;4.67;1.20;;;18.70;99.90;;;;;;4438556;28;656354;-65
2022/07/12 13:29:07;;;;;;;5.23;1.30;;;18.80;99.90;;;;;;4420203;28;656910;-66
2022/07/12 13:31:54;;;;;;;2.73;1.30;;;18.80;99.90;;;;;;4434298;28;657247;-65
2022/07/12 13:34:41;;;;;;;2.13;1.10;;;18.60;99.90;;;;;;4411742;28;656667;-65
2022/07/12 13:37:28;;;;;;;3.40;1.20;;;18.40;99.90;;;;;;4437905;28;657159;-66
2022/07/12 13:40:16;;;;;;;2.17;1.30;;;17.90;99.90;;;;;;4416590;28;656642;-67
2022/07/12 13:43:03;;;;;;;5.40;1.80;;;18.50;99.90;;;;;;4434784;28;655995;-66
2022/07/12 13:45:52;;;;;;;3.53;1.50;;;19.30;99.90;;;;;;4415008;28;657010;-66
2022/07/12 13:48:39;;;;;;;11.57;1.50;;;19.90;99.90;;;;;;4434375;28;657929;-66
2022/07/12 13:51:26;;;;;;;6.60;1.50;;;20.50;99.90;;;;;;4413890;28;657672;-66
2022/07/12 13:54:13;;;;;;;4.17;1.50;;;21.00;99.90;;;;;;4433320;28;657703;-66
2022/07/12 13:57:00;;;;;;;4.50;1.20;;;21.20;99.90;;;;;;4414888;28;657093;-66
2022/07/12 13:59:47;;;;;;;2.07;0.90;;;20.80;99.90;;;;;;4433680;28;657924;-65
2022/07/12 14:02:36;;;;;;;5.50;1.07;;;20.10;99.90;;;;;;4433834;28;656239;-65
2022/07/12 14:05:23;;;;;;;4.77;1.40;;;19.30;99.90;;;;;;4410583;28;657074;-66
2022/07/12 14:08:10;;;;;;;3.23;1.07;;;19.50;99.90;;;;;;4414450;28;657047;-66
2022/07/12 14:10:58;;;;;;;1.03;0.90;;;18.80;99.90;;;;;;4433411;28;657276;-67
2022/07/12 14:13:45;;;;;;;4.37;1.10;;;19.20;99.90;;;;;;4427586;28;656835;-67
2022/07/12 14:16:32;;;;;;;5.53;0.90;;;19.70;99.90;;;;;;4437419;28;656230;-66
2022/07/12 14:19:21;;;;;;;1.07;0.90;;;20.20;99.90;;;;;;4433257;28;657267;-66
2022/07/12 14:22:08;;;;;;;1.27;1.00;;;20.40;99.90;;;;;;4410586;28;657026;-66
2022/07/12 14:24:55;;;;;;;5.03;1.00;;;20.70;99.90;;;;;;4424262;28;656601;-67